Latest Weather Observations for Richmond

IDQ60801

Issued at 8:02 am EST Tuesday 22 January 2019 (issued every 10 minutes, with the page automatically refreshed every 10 minutes)

About weather observations | Map of weather stations | Latest weather observations for QLD | Other Formats
Station Details ID: 030161 Name: RICHMOND AIRPORT Lat: -20.70 Lon: 143.12 Height: 206.3 m
Data from the previous 72 hours. | See also: Recent months at Richmond
Date/Time
EST
Temp
°C
App
Temp
°C
Dew
Point
°C
Rel
Hum
%
Delta-T
°C
Wind Press
QNH
hPa
Press
MSL
hPa
Rain since
9am
mm
Dir  Spd
km/h
Gust
km/h
Spd
kts
Gust
kts
22/08:00am 28.9 27.0 15.1 43 8.5 ENE 19 24 10 13 1012.6 1011.1 0.0
22/07:30am 28.1 27.0 15.4 46 7.8 ENE 15 24 8 13 1012.5 1011.0 0.0
22/07:00am 27.5 28.0 16.5 51 6.9 ENE 9 15 5 8 1012.5 1011.0 0.0
22/06:30am 26.4 27.0 15.4 50 6.7 ENE 6 9 3 5 1012.0 1010.4 0.0
22/06:00am 26.4 26.2 15.8 52 6.5 NE 11 17 6 9 1011.6 1010.0 0.0
22/05:30am 26.6 25.9 15.3 50 6.9 NE 13 19 7 10 1011.1 1009.5 0.0
22/05:00am 26.6 25.8 15.0 49 7.1 NE 13 17 7 9 1010.8 1009.2 0.0
22/04:30am 26.3 26.0 14.4 48 7.2 NE 9 13 5 7 1010.3 1008.7 0.0
22/04:00am 26.9 27.2 15.0 48 7.3 NE 7 11 4 6 1010.1 1008.5 0.0
22/03:30am 27.4 27.4 15.1 47 7.5 ENE 9 9 5 5 1010.0 1008.4 0.0
22/03:00am 28.1 28.1 15.1 45 8.0 NE 9 11 5 6 1010.1 1008.5 0.0
22/02:30am 28.3 28.2 14.9 44 8.2 NE 9 11 5 6 1010.1 1008.5 0.0
22/02:00am 29.2 28.7 15.0 42 8.7 NE 11 13 6 7 1010.4 1008.8 0.0
22/01:30am 30.0 29.5 14.9 39 9.3 NE 11 17 6 9 1010.6 1009.0 0.0
22/01:00am 30.6 29.6 14.7 38 9.8 ENE 13 20 7 11 1010.7 1009.1 0.0
22/12:30am 31.1 29.0 14.7 37 10.1 NE 19 32 10 17 1010.9 1009.3 0.0
22/12:00am 31.6 29.2 13.8 34 10.9 NE 19 26 10 14 1010.9 1009.3 0.0
 
Date/Time
EST
Temp
°C
App
Temp
°C
Dew
Point
°C
Rel
Hum
%
Delta-T
°C
Wind Press
QNH
hPa
Press
MSL
hPa
Rain since
9am
mm
Dir  Spd
km/h
Gust
km/h
Spd
kts
Gust
kts
21/11:30pm 32.2 29.3 13.9 33 11.2 ENE 22 33 12 18 1010.8 1009.2 0.0
21/11:00pm 32.8 30.1 12.9 29 12.0 ENE 19 30 10 16 1010.5 1008.9 0.0
21/10:30pm 33.5 30.1 12.5 28 12.6 E 22 30 12 16 1010.0 1008.4 0.0
21/10:00pm 34.0 30.4 12.9 28 12.8 E 24 32 13 17 1009.8 1008.2 0.0
21/09:30pm 34.3 30.7 12.0 25 13.4 ESE 22 32 12 17 1009.3 1007.8 0.0
21/09:00pm 34.8 30.5 11.9 25 13.7 ESE 26 33 14 18 1008.8 1007.3 0.0
21/08:30pm 35.2 30.4 11.6 24 14.1 ESE 28 37 15 20 1008.5 1007.0 0.0
21/08:00pm 35.6 30.7 11.3 23 14.5 ESE 28 33 15 18 1008.2 1006.7 0.0
21/07:30pm 36.3 31.2 10.5 21 15.2 ESE 28 37 15 20 1007.7 1006.2 0.0
21/07:00pm 37.2 32.2 9.7 19 16.1 ESE 26 35 14 19 1007.2 1005.6 0.0
21/06:30pm 38.0 33.2 10.4 19 16.4 ESE 26 35 14 19 1006.8 1005.2 0.0
21/06:00pm 38.5 33.8 9.1 17 17.2 ESE 24 32 13 17 1006.6 1005.0 0.0
21/05:30pm 39.1 34.1 9.6 17 17.4 ESE 26 39 14 21 1006.6 1005.0 0.0
21/05:00pm 39.3 33.4 8.9 16 17.8 ESE 30 39 16 21 1006.4 1004.8 0.0
21/04:30pm 39.1 34.6 8.7 16 17.7 E 22 35 12 19 1006.6 1005.0 0.0
21/04:00pm 38.8 34.7 8.5 16 17.6 E 20 35 11 19 1006.7 1005.1 0.0
21/03:30pm 39.0 35.1 8.6 16 17.7 ESE 19 37 10 20 1007.0 1005.4 0.0
21/03:00pm 40.0 36.7 9.4 16 18.1 E 17 35 9 19 1007.3 1005.7 0.0
21/02:33pm 39.2 35.3 8.8 16 17.7 ESE 19 56 10 30 1007.7 1006.2 0.0
21/02:30pm 39.0 34.9 8.6 16 17.7 ESE 20 35 11 19 1007.7 1006.2 0.0
21/02:00pm 38.3 33.9 9.0 17 17.1 E 22 39 12 21 1008.1 1006.6 0.0
21/01:30pm 38.2 34.2 8.9 17 17.0 E 20 35 11 19 1008.6 1007.1 0.0
21/01:00pm 37.1 32.3 8.8 18 16.4 ESE 24 37 13 20 1009.1 1007.6 0.0
21/12:49pm 36.6 31.9 9.2 19 15.9 ESE 24 46 13 25 1009.5 1007.9 0.0
21/12:30pm 37.2 32.4 8.9 18 16.4 E 24 41 13 22 1009.6 1008.0 0.0
21/12:00pm 36.1 32.4 10.3 21 15.2 ENE 20 32 11 17 1010.2 1008.6 0.0
21/11:30am 34.7 30.3 10.5 23 14.2 E 24 35 13 19 1010.7 1009.1 0.0
21/11:00am 34.2 29.3 10.1 23 14.0 E 26 37 14 20 1011.2 1009.6 0.0
21/10:30am 33.4 29.3 11.3 26 13.1 E 24 35 13 19 1011.5 1009.9 0.0
21/10:00am 31.8 28.5 11.6 29 11.9 ENE 20 35 11 19 1011.9 1010.3 0.0
21/09:30am 31.1 27.8 11.5 30 11.5 ENE 20 32 11 17 1012.0 1010.4 0.0
21/09:00am 30.2 27.2 12.1 32 10.7 ENE 19 30 10 16 1012.0 1010.4 0.0
21/08:30am 29.0 26.9 14.8 42 8.7 ENE 19 26 10 14 1012.1 1010.6 0.0
21/08:00am 28.2 26.6 15.1 44 8.0 ENE 17 28 9 15 1012.1 1010.6 0.0
21/07:30am 27.0 25.7 15.7 50 7.0 NE 17 24 9 13 1012.1 1010.6 0.0
21/07:00am 26.3 26.1 15.7 52 6.5 NE 11 15 6 8 1011.9 1010.3 0.0
21/06:30am 25.6 25.1 15.9 55 6.0 NE 13 17 7 9 1011.6 1010.0 0.0
21/06:00am 25.8 25.0 16.1 55 6.0 NE 15 22 8 12 1011.0 1009.4 0.0
21/05:30am 26.1 25.4 16.4 55 6.0 NE 15 22 8 12 1010.6 1009.0 0.0
21/05:00am 26.5 26.2 16.4 53 6.3 ENE 13 20 7 11 1010.1 1008.5 0.0
21/04:30am 27.1 25.2 16.7 53 6.5 NE 22 35 12 19 1009.7 1008.1 0.0
21/04:00am 27.6 26.4 16.2 49 7.1 ENE 17 26 9 14 1009.5 1007.9 0.0
21/03:30am 28.0 26.5 14.3 43 8.3 ENE 15 24 8 13 1009.6 1008.0 0.0
21/03:00am 28.2 26.3 12.9 38 9.1 NE 15 24 8 13 1009.6 1008.0 0.0
21/02:30am 28.5 26.4 12.4 37 9.5 NE 15 20 8 11 1009.7 1008.1 0.0
21/02:00am 29.1 27.1 11.6 33 10.2 NE 13 17 7 9 1009.9 1008.3 0.0
21/01:30am 29.8 27.5 11.8 33 10.6 NE 15 20 8 11 1010.1 1008.5 0.0
21/01:00am 30.8 28.6 12.2 32 11.0 ENE 15 22 8 12 1010.4 1008.8 0.0
21/12:30am 31.4 29.2 12.2 30 11.4 NE 15 24 8 13 1010.7 1009.1 0.0
21/12:00am 31.9 29.7 12.2 30 11.7 ENE 15 28 8 15 1010.9 1009.3 0.0
 
Date/Time
EST
Temp
°C
App
Temp
°C
Dew
Point
°C
Rel
Hum
%
Delta-T
°C
Wind Press
QNH
hPa
Press
MSL
hPa
Rain since
9am
mm
Dir  Spd
km/h
Gust
km/h
Spd
kts
Gust
kts
20/11:30pm 32.5 29.7 12.7 30 11.9 ENE 19 30 10 16 1010.8 1009.2 0.0
20/11:00pm 32.9 31.0 13.0 30 12.0 ENE 15 26 8 14 1010.7 1009.1 0.0
20/10:30pm 33.4 30.7 12.9 28 12.4 ENE 19 26 10 14 1010.5 1008.9 0.0
20/10:00pm 33.7 31.7 12.7 28 12.7 ENE 15 24 8 13 1010.5 1008.9 0.0
20/09:30pm 33.7 31.7 11.5 26 13.2 E 13 19 7 10 1010.0 1008.4 0.0
20/09:00pm 34.4 31.5 10.9 24 13.9 ESE 17 22 9 12 1009.5 1007.9 0.0
20/08:30pm 35.2 30.9 10.9 23 14.4 ESE 24 32 13 17 1008.9 1007.4 0.0
20/08:00pm 35.5 31.7 9.8 21 15.0 ESE 20 28 11 15 1008.5 1007.0 0.0
20/07:30pm 36.2 31.2 9.7 20 15.5 ESE 26 33 14 18 1008.1 1006.6 0.0
20/07:00pm 37.0 31.6 9.6 19 16.0 ESE 28 35 15 19 1007.6 1006.0 0.0
20/06:30pm 38.0 33.0 9.6 18 16.7 ESE 26 39 14 21 1007.1 1005.5 0.0
20/06:00pm 38.6 33.7 8.3 16 17.5 E 24 39 13 21 1006.8 1005.2 0.0
20/05:30pm 38.8 34.0 7.5 15 17.9 E 22 32 12 17 1006.8 1005.2 0.0
20/05:00pm 39.4 35.3 8.0 15 18.2 E 19 33 10 18 1006.8 1005.2 0.0
20/04:30pm 39.0 34.1 6.7 14 18.2 ESE 22 32 12 17 1006.9 1005.3 0.0
20/04:00pm 40.6 36.5 7.9 14 19.0 E 19 41 10 22 1007.1 1005.5 0.0
20/03:30pm 39.1 34.7 6.7 14 18.3 E 19 37 10 20 1007.3 1005.7 0.0
20/03:00pm 39.5 35.3 8.1 15 18.2 ESE 20 33 11 18 1007.9 1006.4 0.0
20/02:30pm 38.1 34.6 8.8 17 17.0 E 17 28 9 15 1008.4 1006.9 0.0
20/02:00pm 37.4 33.8 9.9 19 16.2 ESE 19 33 10 18 1008.9 1007.4 0.0
20/01:30pm 38.0 34.4 10.4 19 16.4 ESE 20 32 11 17 1009.5 1007.9 0.0
20/01:00pm 36.9 34.6 11.7 22 15.2 ESE 15 26 8 14 1010.2 1008.6 0.0
20/12:30pm 36.3 32.9 11.2 22 15.0 E 20 33 11 18 1010.7 1009.1 0.0
20/12:00pm 35.8 33.2 12.1 24 14.3 ESE 17 33 9 18 1011.2 1009.6 0.0
20/11:30am 34.2 31.8 12.5 27 13.1 E 17 30 9 16 1011.6 1010.0 0.0
20/11:00am 34.2 32.5 14.7 31 12.2 NE 17 24 9 13 1012.1 1010.6 0.0
20/10:30am 33.1 31.8 14.7 33 11.4 ENE 15 28 8 15 1012.4 1010.9 0.0
20/10:00am 31.4 29.8 15.0 37 10.2 ENE 17 26 9 14 1012.5 1011.0 0.0
20/09:30am 31.9 30.5 16.6 39 9.7 NE 19 30 10 16 1012.7 1011.2 0.0
20/09:00am 30.9 29.9 16.5 42 9.1 NE 17 24 9 13 1012.9 1011.4 0.0
20/08:30am 29.4 27.3 16.2 44 8.3 NE 22 33 12 18 1012.9 1011.4 0.0
20/08:00am 28.7 27.6 16.3 47 7.8 NE 17 26 9 14 1012.7 1011.2 0.0
20/07:30am 28.5 28.6 17.4 51 7.1 ENE 13 19 7 10 1012.6 1011.1 0.0
20/07:00am 27.6 27.4 17.7 54 6.3 ENE 15 24 8 13 1012.3 1010.8 0.0
20/06:30am 26.9 27.1 17.7 57 5.8 ENE 13 19 7 10 1011.8 1010.2 0.0
20/06:00am 26.9 27.2 17.9 57 5.7 ENE 13 22 7 12 1011.1 1009.5 0.0
20/05:30am 27.5 27.7 18.5 58 5.8 NE 15 24 8 13 1010.7 1009.1 0.0
20/05:00am 27.6 28.1 18.3 57 6.0 NE 13 17 7 9 1010.3 1008.7 0.0
20/04:30am 27.2 27.7 16.5 52 6.7 NE 9 11 5 6 1010.2 1008.6 0.0
20/04:00am 27.9 27.6 14.5 44 8.1 NE 9 13 5 7 1010.0 1008.4 0.0
20/03:30am 29.0 27.9 14.4 41 8.9 E 13 17 7 9 1010.1 1008.5 0.0
20/03:00am 29.7 28.2 14.3 39 9.4 E 15 20 8 11 1010.1 1008.5 0.0
20/02:30am 30.1 27.7 13.8 37 9.9 E 19 28 10 15 1010.0 1008.4 0.0
20/02:00am 30.7 27.6 13.5 35 10.4 E 22 32 12 17 1010.1 1008.5 0.0
20/01:30am 31.2 27.4 13.5 34 10.7 E 26 35 14 19 1010.1 1008.5 0.0
20/01:00am 31.6 27.4 13.4 33 11.0 E 28 35 15 19 1010.1 1008.5 0.0
20/12:30am 32.2 28.0 13.4 32 11.4 E 28 39 15 21 1010.1 1008.5 0.0
20/12:00am 32.5 28.0 12.7 30 11.9 ESE 28 39 15 21 1010.2 1008.6 0.0
 
Date/Time
EST
Temp
°C
App
Temp
°C
Dew
Point
°C
Rel
Hum
%
Delta-T
°C
Wind Press
QNH
hPa
Press
MSL
hPa
Rain since
9am
mm
Dir  Spd
km/h
Gust
km/h
Spd
kts
Gust
kts
19/11:30pm 32.9 28.6 12.0 28 12.5 ESE 26 35 14 19 1010.0 1008.4 0.0
19/11:00pm 33.1 28.5 11.0 26 13.0 ESE 26 35 14 19 1010.0 1008.4 0.0
19/10:30pm 33.6 29.0 10.9 25 13.3 ESE 26 39 14 21 1009.9 1008.3 0.0
19/10:00pm 33.9 29.7 11.1 25 13.5 ESE 24 28 13 15 1009.6 1008.0 0.0
19/09:30pm 34.5 31.0 11.0 24 13.9 ESE 20 28 11 15 1009.2 1007.7 0.0
19/09:00pm 35.1 32.0 11.5 24 14.1 ESE 19 24 10 13 1008.8 1007.3 0.0
19/08:30pm 35.5 32.7 11.2 23 14.5 ESE 17 20 9 11 1008.5 1007.0 0.0
19/08:00pm 36.5 32.9 12.0 23 14.8 ESE 22 28 12 15 1007.9 1006.4 0.0
19/07:30pm 37.1 33.3 12.5 23 15.0 ESE 24 30 13 16 1007.7 1006.2 0.0
19/07:00pm 37.8 33.6 12.4 22 15.5 ESE 26 33 14 18 1007.1 1005.5 0.0
19/06:30pm 38.9 33.6 12.6 21 16.2 ESE 32 43 17 23 1006.7 1005.1 0.0
19/06:00pm 39.5 35.9 13.1 21 16.4 SE 24 37 13 20 1006.2 1004.6 0.0
19/05:30pm 40.1 37.1 13.6 21 16.6 ESE 22 35 12 19 1006.2 1004.6 0.0
19/05:15pm 40.3 36.4 14.5 22 16.4 SE 28 48 15 26 1006.3 1004.7 0.0
19/05:00pm 40.3 37.7 13.8 21 16.7 E 20 32 11 17 1006.3 1004.7 0.0
19/04:30pm 39.0 36.5 14.1 23 15.6 ESE 20 28 11 15 1006.5 1004.9 0.0
19/04:00pm 39.8 38.5 14.8 23 15.9 ESE 15 20 8 11 1006.9 1005.3 0.0
19/03:30pm 39.7 38.9 16.0 25 15.3 SE 15 24 8 13 1007.4 1005.8 0.0
19/03:00pm 39.7 38.2 15.3 23 15.6 ESE 17 32 9 17 1007.8 1006.3 0.0
19/02:30pm 40.4 41.0 15.9 23 15.8 SW 7 13 4 7 1008.2 1006.7 0.0
19/02:00pm 38.7 39.3 15.7 25 14.8 ESE 7 15 4 8 1008.8 1007.3 0.0
19/01:30pm 38.1 37.6 15.8 26 14.3 E 13 22 7 12 1009.2 1007.7 0.0
19/01:00pm 38.8 38.8 15.2 24 15.1 NE 9 17 5 9 1009.8 1008.2 0.0
19/12:30pm 37.1 36.8 15.5 27 13.7 SE 11 17 6 9 1010.2 1008.6 0.0
19/12:00pm 36.6 36.6 17.2 31 12.6 NNE 13 22 7 12 1010.7 1009.1 0.0
19/11:30am 36.3 37.1 17.4 32 12.3 NE 9 13 5 7 1011.0 1009.4 0.0
19/11:00am 34.6 35.4 17.3 35 11.2 N 9 13 5 7 1011.5 1009.9 0.0
19/10:30am 34.8 35.7 18.4 38 10.8 ENE 11 17 6 9 1011.9 1010.3 0.0
19/10:00am 33.5 33.1 18.0 39 10.1 NNE 17 30 9 16 1012.2 1010.7 0.0
19/09:30am 33.3 33.5 18.6 41 9.6 NNE 15 22 8 12 1012.2 1010.7 0.0
19/09:00am 32.2 31.6 18.4 44 9.0 NNE 19 28 10 15 1012.2 1010.7 0.0
19/08:30am 31.7 31.5 19.3 47 8.2 NE 19 26 10 14 1012.3 1010.8 0.0

Other Formats:

Comma delimited format used in spreadsheet applications
http://www.bom.gov.au/fwo/IDQ60801/IDQ60801.94341.axf

JavaScript Object Notation format (JSON) in row-major order
http://www.bom.gov.au/fwo/IDQ60801/IDQ60801.94341.json